createdAt,value
2023-03-25T00:01:26.117Z,63.65
2023-03-25T00:03:58.451Z,64.20
2023-03-25T00:06:31.425Z,64.13
2023-03-25T00:09:04.230Z,64.26
2023-03-25T00:11:35.965Z,64.15
2023-03-25T00:14:08.273Z,64.32
2023-03-25T00:16:43.421Z,64.67
2023-03-25T00:19:18.376Z,64.59
2023-03-25T00:21:50.541Z,64.82
2023-03-25T00:24:22.313Z,65.03
2023-03-25T00:26:54.350Z,65.02
2023-03-25T00:29:26.261Z,64.98
2023-03-25T00:31:57.974Z,65.13
2023-03-25T00:34:29.638Z,64.96
2023-03-25T00:37:04.558Z,65.02
2023-03-25T00:39:38.017Z,65.16
2023-03-25T00:42:11.338Z,65.61
2023-03-25T00:44:43.504Z,65.03
2023-03-25T00:47:18.762Z,65.52
2023-03-25T00:49:51.695Z,65.53
2023-03-25T00:52:23.441Z,65.46
2023-03-25T00:54:55.259Z,65.49
2023-03-25T00:57:26.986Z,65.73
2023-03-25T00:59:58.710Z,65.53
2023-03-25T01:02:31.191Z,65.59
2023-03-25T01:05:04.133Z,65.70
2023-03-25T01:07:37.591Z,65.97
2023-03-25T01:10:11.701Z,65.85
2023-03-25T01:12:43.421Z,65.74
2023-03-25T01:15:15.640Z,65.68
2023-03-25T01:17:47.384Z,65.98
2023-03-25T01:20:19.106Z,66.38
2023-03-25T01:22:51.175Z,66.43
2023-03-25T01:25:22.949Z,66.34
2023-03-25T01:27:54.670Z,66.54
2023-03-25T01:30:26.329Z,66.14
2023-03-25T01:32:58.237Z,66.45
2023-03-25T01:35:29.927Z,66.38
2023-03-25T01:38:01.741Z,66.06
2023-03-25T01:40:34.414Z,66.39
2023-03-25T01:43:13.401Z,66.61
2023-03-25T01:45:48.062Z,66.30
2023-03-25T01:48:28.532Z,66.33
2023-03-25T01:51:06.889Z,66.64
2023-03-25T01:53:39.520Z,66.45
2023-03-25T01:56:16.025Z,66.62
2023-03-25T01:58:48.314Z,66.72
2023-03-25T02:01:21.873Z,66.78
2023-03-25T02:04:02.990Z,67.34
2023-03-25T02:06:42.450Z,67.24
2023-03-25T02:09:17.822Z,67.08
2023-03-25T02:11:49.636Z,67.21
2023-03-25T02:14:25.869Z,67.23
2023-03-25T02:17:19.813Z,67.75
2023-03-25T02:20:11.205Z,67.83
2023-03-25T02:23:11.630Z,67.90
2023-03-25T02:26:09.433Z,67.83
2023-03-25T02:28:48.142Z,68.10
2023-03-25T02:31:33.217Z,68.19
2023-03-25T02:34:39.275Z,68.28
2023-03-25T02:37:22.852Z,68.51
2023-03-25T02:40:10.999Z,68.48
2023-03-25T02:43:05.991Z,68.80
2023-03-25T02:45:51.059Z,68.19
2023-03-25T02:48:34.079Z,68.42
2023-03-25T02:51:12.832Z,68.32
2023-03-25T02:53:48.283Z,68.78
2023-03-25T02:56:22.865Z,68.52
2023-03-25T02:58:57.472Z,68.79
2023-03-25T03:01:29.239Z,68.88
2023-03-25T03:04:02.212Z,69.48
2023-03-25T03:06:41.801Z,69.42
2023-03-25T03:09:25.814Z,69.48
2023-03-25T03:12:36.119Z,69.68
2023-03-25T03:15:16.384Z,69.37
2023-03-25T03:18:06.276Z,69.32
2023-03-25T03:21:07.133Z,69.25
2023-03-25T03:24:01.760Z,68.85
2023-03-25T03:26:53.824Z,68.60
2023-03-25T03:29:35.613Z,68.60
2023-03-25T03:32:21.953Z,68.26
2023-03-25T03:34:58.057Z,68.51
2023-03-25T03:37:41.315Z,67.77
2023-03-25T03:40:17.894Z,67.89
2023-03-25T03:43:01.161Z,67.78
2023-03-25T03:45:49.901Z,67.67
2023-03-25T03:48:38.169Z,67.40
2023-03-25T03:51:18.668Z,66.97
2023-03-25T03:54:05.468Z,66.70
2023-03-25T03:56:47.933Z,66.38
2023-03-25T03:59:38.031Z,66.50
2023-03-25T04:02:24.146Z,66.64
2023-03-25T04:05:00.617Z,66.53
2023-03-25T04:07:54.829Z,66.68
2023-03-25T04:10:42.523Z,66.68
2023-03-25T04:13:17.389Z,66.44
2023-03-25T04:15:49.830Z,66.47
2023-03-25T04:18:23.454Z,66.29
2023-03-25T04:20:56.041Z,66.12
2023-03-25T04:23:31.909Z,65.71
2023-03-25T04:26:03.909Z,65.99
2023-03-25T04:28:41.864Z,66.18
2023-03-25T04:31:15.754Z,65.89
2023-03-25T04:33:48.837Z,65.79
2023-03-25T04:36:20.932Z,65.69
2023-03-25T04:38:53.200Z,65.38
2023-03-25T04:41:25.743Z,65.38
2023-03-25T04:43:58.383Z,65.17
2023-03-25T04:46:30.113Z,65.26
2023-03-25T04:49:14.066Z,65.99
2023-03-25T04:51:45.937Z,65.57
2023-03-25T04:54:21.680Z,65.75
2023-03-25T04:56:53.464Z,65.96
2023-03-25T04:59:25.107Z,65.44
2023-03-25T05:01:56.902Z,65.78
2023-03-25T05:04:29.023Z,65.71
2023-03-25T05:07:00.803Z,65.68
2023-03-25T05:09:32.502Z,65.69
2023-03-25T05:12:04.364Z,65.74
2023-03-25T05:14:36.042Z,65.83
2023-03-25T05:17:07.681Z,65.81
2023-03-25T05:19:43.712Z,65.56
2023-03-25T05:22:15.399Z,65.81
2023-03-25T05:24:47.458Z,65.84
2023-03-25T05:27:20.253Z,65.77
2023-03-25T05:29:52.087Z,66.41
2023-03-25T05:32:26.008Z,65.90
2023-03-25T05:34:57.701Z,64.56
2023-03-25T05:37:29.792Z,63.39
2023-03-25T05:40:02.298Z,60.24
2023-03-25T05:42:34.935Z,56.67
2023-03-25T05:45:10.383Z,54.72
2023-03-25T05:47:46.061Z,53.39
2023-03-25T05:50:18.181Z,53.44
2023-03-25T05:52:51.793Z,53.95
2023-03-25T05:55:23.814Z,53.57
2023-03-25T05:57:56.962Z,53.99
2023-03-25T06:00:30.473Z,54.62
2023-03-25T06:03:02.385Z,55.00
2023-03-25T06:05:41.495Z,55.31
2023-03-25T06:08:13.919Z,56.17
2023-03-25T06:10:45.960Z,56.35
2023-03-25T06:13:17.709Z,56.46
2023-03-25T06:15:49.539Z,56.63
2023-03-25T06:18:24.910Z,56.77
2023-03-25T06:20:57.765Z,56.96
2023-03-25T06:23:29.498Z,56.29
2023-03-25T06:26:01.564Z,56.17
2023-03-25T06:28:33.678Z,55.22
2023-03-25T06:31:08.485Z,54.55
2023-03-25T06:33:42.770Z,53.31
2023-03-25T06:36:18.730Z,52.81
2023-03-25T06:38:51.006Z,52.09
2023-03-25T06:41:25.631Z,51.61
2023-03-25T06:44:08.440Z,51.35
2023-03-25T06:46:52.424Z,52.93
2023-03-25T06:49:45.143Z,51.49
2023-03-25T06:52:19.462Z,50.78
2023-03-25T06:54:51.259Z,49.00
2023-03-25T06:57:22.940Z,47.82
2023-03-25T06:59:54.689Z,46.97
2023-03-25T07:02:26.462Z,46.21
2023-03-25T07:04:58.260Z,44.93
2023-03-25T07:07:29.964Z,49.58
2023-03-25T07:10:01.755Z,45.75
2023-03-25T07:12:34.946Z,45.19
2023-03-25T07:15:07.873Z,45.01
2023-03-25T07:17:43.053Z,45.57
2023-03-25T07:20:17.018Z,45.08
2023-03-25T07:22:48.930Z,45.66
2023-03-25T07:25:20.689Z,45.57
2023-03-25T07:27:52.401Z,46.60
2023-03-25T07:30:25.594Z,46.29
2023-03-25T07:33:00.392Z,43.99
2023-03-25T07:35:32.210Z,43.59
2023-03-25T07:38:05.121Z,43.17
2023-03-25T07:40:36.924Z,43.22
2023-03-25T07:43:08.683Z,42.79
2023-03-25T07:45:58.794Z,43.11
2023-03-25T07:48:34.462Z,44.95
2023-03-25T07:51:09.032Z,43.41
2023-03-25T07:53:44.595Z,45.41
2023-03-25T07:56:16.419Z,47.87
2023-03-25T07:58:49.603Z,49.40
2023-03-25T08:01:23.901Z,51.15
2023-03-25T08:03:55.607Z,51.99
2023-03-25T08:06:27.314Z,52.15
2023-03-25T08:08:59.030Z,52.32
2023-03-25T08:11:32.568Z,53.13
2023-03-25T08:14:05.540Z,54.37
2023-03-25T08:16:37.337Z,56.24
2023-03-25T08:19:09.110Z,57.11
2023-03-25T08:21:41.307Z,57.70
2023-03-25T08:24:13.738Z,58.76
2023-03-25T08:26:45.440Z,59.05
2023-03-25T08:29:17.943Z,58.96
2023-03-25T08:31:52.524Z,57.97
2023-03-25T08:34:29.086Z,57.09
2023-03-25T08:37:04.411Z,54.90
2023-03-25T08:39:40.244Z,53.67
2023-03-25T08:42:15.692Z,51.50
2023-03-25T08:44:47.711Z,50.04
2023-03-25T08:47:20.677Z,50.11
2023-03-25T08:49:52.374Z,49.64
2023-03-25T08:52:24.132Z,49.52
2023-03-25T08:54:55.914Z,48.97
2023-03-25T08:57:30.623Z,50.02
2023-03-25T09:00:02.722Z,50.14
2023-03-25T09:02:37.398Z,50.68
2023-03-25T09:05:12.932Z,51.68
2023-03-25T09:07:47.056Z,52.03
2023-03-25T09:10:19.776Z,52.08
2023-03-25T09:12:51.876Z,52.20
2023-03-25T09:15:23.730Z,52.46
2023-03-25T09:17:55.568Z,51.32
2023-03-25T09:20:27.447Z,49.94
2023-03-25T09:22:59.443Z,49.16
2023-03-25T09:25:31.074Z,48.95
2023-03-25T09:28:02.812Z,47.04
2023-03-25T09:30:34.853Z,50.84
2023-03-25T09:33:07.282Z,46.42
2023-03-25T09:35:41.374Z,45.13
2023-03-25T09:38:13.569Z,44.82
2023-03-25T09:40:46.012Z,42.58
2023-03-25T09:43:26.973Z,43.58
2023-03-25T09:45:59.984Z,43.56
2023-03-25T09:48:42.072Z,42.16
2023-03-25T09:51:36.655Z,41.08
2023-03-25T09:54:29.499Z,41.98
2023-03-25T09:57:07.830Z,41.60
2023-03-25T09:59:48.951Z,39.98
2023-03-25T10:02:41.580Z,39.34
2023-03-25T10:05:31.207Z,40.51
2023-03-25T10:08:17.926Z,41.98
2023-03-25T10:11:07.933Z,39.56
2023-03-25T10:14:29.188Z,39.73
2023-03-25T10:17:08.787Z,40.02
2023-03-25T10:19:54.464Z,38.08
2023-03-25T10:22:50.527Z,38.38
2023-03-25T10:25:26.782Z,39.04
2023-03-25T10:28:01.136Z,39.99
2023-03-25T10:30:38.714Z,40.67
2023-03-25T10:33:25.034Z,41.32
2023-03-25T10:35:59.980Z,41.71
2023-03-25T10:38:36.433Z,41.97
2023-03-25T10:41:23.256Z,41.53
2023-03-25T10:43:54.965Z,41.78
2023-03-25T10:46:55.531Z,41.03
2023-03-25T10:49:30.552Z,41.88
2023-03-25T10:52:02.496Z,41.86
2023-03-25T10:54:39.536Z,42.27
2023-03-25T10:57:20.339Z,42.25
2023-03-25T11:00:19.635Z,42.56
2023-03-25T11:02:51.671Z,42.80
2023-03-25T11:05:28.291Z,43.26
2023-03-25T11:08:18.084Z,42.83
2023-03-25T11:11:00.402Z,42.87
2023-03-25T11:13:32.145Z,43.10
2023-03-25T11:16:04.391Z,42.85
2023-03-25T11:18:40.781Z,42.71
2023-03-25T11:21:14.338Z,42.97
2023-03-25T11:23:51.699Z,43.10
2023-03-25T11:26:37.324Z,43.18
2023-03-25T11:29:18.952Z,42.88
2023-03-25T11:32:14.804Z,42.34
2023-03-25T11:34:52.005Z,41.52
2023-03-25T11:37:27.942Z,40.28
2023-03-25T11:40:06.611Z,40.45
2023-03-25T11:42:42.930Z,39.55
2023-03-25T11:45:40.892Z,40.04
2023-03-25T11:48:18.113Z,40.00
2023-03-25T11:50:59.852Z,39.67
2023-03-25T11:53:33.466Z,38.56
2023-03-25T11:56:10.910Z,38.20
2023-03-25T11:58:43.316Z,37.65
2023-03-25T12:01:36.923Z,37.82
2023-03-25T12:04:13.221Z,38.96
2023-03-25T12:07:00.055Z,39.29
2023-03-25T12:09:32.029Z,39.84
2023-03-25T12:12:42.491Z,40.39
2023-03-25T12:15:28.540Z,40.30
2023-03-25T12:18:35.822Z,40.52
2023-03-25T12:21:16.864Z,40.74
2023-03-25T12:24:00.560Z,40.95
2023-03-25T12:27:03.077Z,41.27
2023-03-25T12:29:45.859Z,41.99
2023-03-25T12:32:30.501Z,42.46
2023-03-25T12:35:41.535Z,41.86
2023-03-25T12:38:32.766Z,41.21
2023-03-25T12:41:10.389Z,41.31
2023-03-25T12:43:51.007Z,40.96
2023-03-25T12:46:38.676Z,40.69
2023-03-25T12:49:31.648Z,40.34
2023-03-25T12:52:21.232Z,40.14
2023-03-25T12:55:03.630Z,39.05
2023-03-25T12:57:56.602Z,38.71
2023-03-25T13:00:30.959Z,37.85
2023-03-25T13:03:36.619Z,38.20
2023-03-25T13:06:26.397Z,38.16
2023-03-25T13:09:24.126Z,39.80
2023-03-25T13:12:03.776Z,41.50
2023-03-25T13:14:41.568Z,41.56
2023-03-25T13:17:28.569Z,40.82
2023-03-25T13:20:06.443Z,40.17
2023-03-25T13:22:46.880Z,39.61
2023-03-25T13:25:26.965Z,39.09
2023-03-25T13:28:03.181Z,38.78
2023-03-25T13:30:38.924Z,38.43
2023-03-25T13:33:25.143Z,38.47
2023-03-25T13:36:06.003Z,38.31
2023-03-25T13:38:50.575Z,38.77
2023-03-25T13:41:37.432Z,37.77
2023-03-25T13:44:26.485Z,37.24
2023-03-25T13:47:04.823Z,37.60
2023-03-25T13:49:58.084Z,37.71
2023-03-25T13:52:36.686Z,38.11
2023-03-25T13:55:26.224Z,38.05
2023-03-25T13:58:18.203Z,38.55
2023-03-25T14:00:53.060Z,38.56
2023-03-25T14:03:50.498Z,38.36
2023-03-25T14:06:35.125Z,39.37
2023-03-25T14:09:34.672Z,39.60
2023-03-25T14:12:21.485Z,38.69
2023-03-25T14:15:05.066Z,38.07
2023-03-25T14:17:37.509Z,38.28
2023-03-25T14:20:18.973Z,38.28
2023-03-25T14:22:56.929Z,37.82
2023-03-25T14:25:37.319Z,37.90
2023-03-25T14:28:16.456Z,38.22
2023-03-25T14:31:17.107Z,38.26
2023-03-25T14:34:02.129Z,38.53
2023-03-25T14:36:39.836Z,38.08
2023-03-25T14:39:32.073Z,38.56
2023-03-25T14:42:06.717Z,39.26
2023-03-25T14:44:41.327Z,39.34
2023-03-25T14:47:17.072Z,39.98
2023-03-25T14:50:13.624Z,41.32
2023-03-25T14:52:48.948Z,44.41
2023-03-25T14:55:32.674Z,46.06
2023-03-25T14:58:24.659Z,46.96
2023-03-25T15:01:05.119Z,48.09
2023-03-25T15:03:44.377Z,48.87
2023-03-25T15:06:28.353Z,48.88
2023-03-25T15:09:09.759Z,48.88
2023-03-25T15:11:52.726Z,49.34
2023-03-25T15:14:28.771Z,49.56
2023-03-25T15:17:09.882Z,50.67
2023-03-25T15:20:23.195Z,50.80
2023-03-25T15:23:22.230Z,50.32
2023-03-25T15:25:57.279Z,49.54
2023-03-25T15:28:34.703Z,48.16
2023-03-25T15:31:41.097Z,47.71
2023-03-25T15:34:28.197Z,47.54
2023-03-25T15:37:03.229Z,48.16
2023-03-25T15:39:54.428Z,48.27
2023-03-25T15:42:32.395Z,48.09
2023-03-25T15:45:52.142Z,48.35
2023-03-25T15:48:45.780Z,48.86
2023-03-25T15:51:38.641Z,48.96
2023-03-25T15:54:26.594Z,49.09
2023-03-25T15:57:28.824Z,49.36
2023-03-25T16:00:28.485Z,49.26
2023-03-25T16:03:01.871Z,49.68
2023-03-25T16:05:42.771Z,48.99
2023-03-25T16:08:22.792Z,48.83
2023-03-25T16:10:54.495Z,48.72
2023-03-25T16:13:26.272Z,49.00
2023-03-25T16:15:58.697Z,48.82
2023-03-25T16:18:30.460Z,48.84
2023-03-25T16:21:03.463Z,48.90
2023-03-25T16:23:37.275Z,48.43
2023-03-25T16:26:17.888Z,48.75
2023-03-25T16:28:49.560Z,48.32
2023-03-25T16:31:34.950Z,47.95
2023-03-25T16:34:16.247Z,47.95
2023-03-25T16:36:50.841Z,48.16
2023-03-25T16:39:24.827Z,48.36
2023-03-25T16:42:02.726Z,48.69
2023-03-25T16:44:34.875Z,48.79
2023-03-25T16:47:06.812Z,48.90
2023-03-25T16:49:39.374Z,49.08
2023-03-25T16:52:15.465Z,52.23
2023-03-25T16:55:26.563Z,50.13
2023-03-25T16:58:02.422Z,49.04
2023-03-25T17:00:43.146Z,48.96
2023-03-25T17:03:21.322Z,49.18
2023-03-25T17:06:08.925Z,49.15
2023-03-25T17:08:40.827Z,48.99
2023-03-25T17:11:13.699Z,49.05
2023-03-25T17:13:51.952Z,49.36
2023-03-25T17:16:28.275Z,49.50
2023-03-25T17:19:01.845Z,49.78
2023-03-25T17:21:34.838Z,49.96
2023-03-25T17:24:22.596Z,50.01
2023-03-25T17:27:08.049Z,50.25
2023-03-25T17:29:51.118Z,50.29
2023-03-25T17:32:23.658Z,50.85
2023-03-25T17:35:06.512Z,50.83
2023-03-25T17:37:38.386Z,51.12
2023-03-25T17:40:21.412Z,51.41
2023-03-25T17:42:53.686Z,51.87
2023-03-25T17:45:26.181Z,52.02
2023-03-25T17:47:57.936Z,52.56
2023-03-25T17:50:33.074Z,53.12
2023-03-25T17:53:04.754Z,53.34
2023-03-25T17:55:37.243Z,53.74
2023-03-25T17:58:09.282Z,53.92
2023-03-25T18:00:42.955Z,53.98
2023-03-25T18:03:23.860Z,54.75
2023-03-25T18:05:55.619Z,54.72
2023-03-25T18:08:28.150Z,54.61
2023-03-25T18:11:00.023Z,54.80
2023-03-25T18:13:31.741Z,55.33
2023-03-25T18:16:03.635Z,55.07
2023-03-25T18:18:35.506Z,55.28
2023-03-25T18:21:11.676Z,55.50
2023-03-25T18:23:48.000Z,55.84
2023-03-25T18:26:22.383Z,55.91
2023-03-25T18:28:54.065Z,56.07
2023-03-25T18:31:27.352Z,56.19
2023-03-25T18:33:59.088Z,56.51
2023-03-25T18:36:31.452Z,56.43
2023-03-25T18:39:04.073Z,56.66
2023-03-25T18:41:35.775Z,56.76
2023-03-25T18:44:07.946Z,56.76
2023-03-25T18:46:41.516Z,57.07
2023-03-25T18:49:18.603Z,56.95
2023-03-25T18:51:50.388Z,57.20
2023-03-25T18:54:22.061Z,57.19
2023-03-25T18:56:53.781Z,57.30
2023-03-25T18:59:25.677Z,57.67
2023-03-25T19:01:58.125Z,57.48
2023-03-25T19:04:31.904Z,57.23
2023-03-25T19:07:04.736Z,57.77
2023-03-25T19:09:36.436Z,57.71
2023-03-25T19:12:08.162Z,57.48
2023-03-25T19:14:39.850Z,58.00
2023-03-25T19:17:12.950Z,58.21
2023-03-25T19:19:44.711Z,58.37
2023-03-25T19:22:16.399Z,58.39
2023-03-25T19:24:48.057Z,58.46
2023-03-25T19:27:19.858Z,58.21
2023-03-25T19:29:52.239Z,58.12
2023-03-25T19:32:24.069Z,58.96
2023-03-25T19:34:56.622Z,58.78
2023-03-25T19:37:35.398Z,58.41
2023-03-25T19:40:09.391Z,59.08
2023-03-25T19:42:41.176Z,58.57
2023-03-25T19:45:13.647Z,58.48
2023-03-25T19:47:45.888Z,59.27
2023-03-25T19:50:23.554Z,59.59
2023-03-25T19:52:56.434Z,59.31
2023-03-25T19:55:31.031Z,59.42
2023-03-25T19:58:03.288Z,59.53
2023-03-25T20:00:35.210Z,59.42
2023-03-25T20:03:07.767Z,58.97
2023-03-25T20:05:40.597Z,59.16
2023-03-25T20:08:12.556Z,59.41
2023-03-25T20:10:45.365Z,59.54
2023-03-25T20:13:17.164Z,59.40
2023-03-25T20:15:50.625Z,59.27
2023-03-25T20:18:22.671Z,59.93
2023-03-25T20:20:54.374Z,59.86
2023-03-25T20:23:26.152Z,59.69
2023-03-25T20:25:57.834Z,60.00
2023-03-25T20:28:31.423Z,59.79
2023-03-25T20:31:13.498Z,59.62
2023-03-25T20:33:46.775Z,59.28
2023-03-25T20:36:20.221Z,59.55
2023-03-25T20:38:57.743Z,59.38
2023-03-25T20:41:29.834Z,59.04
2023-03-25T20:44:01.569Z,59.45
2023-03-25T20:46:33.326Z,58.96
2023-03-25T20:49:08.909Z,59.65
2023-03-25T20:51:41.722Z,59.30
2023-03-25T20:54:15.129Z,59.58
2023-03-25T20:56:46.933Z,59.55
2023-03-25T20:59:19.888Z,59.80
2023-03-25T21:01:54.365Z,59.28
2023-03-25T21:04:26.585Z,58.85
2023-03-25T21:06:58.578Z,59.01
2023-03-25T21:09:30.660Z,59.24
2023-03-25T21:12:02.491Z,59.61
2023-03-25T21:14:36.264Z,59.21
2023-03-25T21:17:08.051Z,59.29
2023-03-25T21:19:40.157Z,59.54
2023-03-25T21:22:12.314Z,59.42
2023-03-25T21:24:44.069Z,59.29
2023-03-25T21:27:17.743Z,59.66
2023-03-25T21:29:52.488Z,59.63
2023-03-25T21:32:24.329Z,59.60
2023-03-25T21:34:56.013Z,59.24
2023-03-25T21:37:29.068Z,59.59
2023-03-25T21:40:00.916Z,59.30
2023-03-25T21:42:32.559Z,60.07
2023-03-25T21:45:05.299Z,59.58
2023-03-25T21:47:37.235Z,59.44
2023-03-25T21:50:11.946Z,60.08
2023-03-25T21:52:46.574Z,59.45
2023-03-25T21:55:19.543Z,59.24
2023-03-25T21:57:51.443Z,59.27
2023-03-25T22:00:25.010Z,59.52
2023-03-25T22:02:58.466Z,59.27
2023-03-25T22:05:31.051Z,59.32
2023-03-25T22:08:02.739Z,59.24
2023-03-25T22:10:34.426Z,59.00
2023-03-25T22:13:06.241Z,58.83
2023-03-25T22:15:37.945Z,58.33
2023-03-25T22:18:09.686Z,58.52
2023-03-25T22:20:41.622Z,58.31
2023-03-25T22:23:13.329Z,58.79
2023-03-25T22:25:45.929Z,58.27
2023-03-25T22:28:19.996Z,58.08
2023-03-25T22:30:51.856Z,58.20
2023-03-25T22:33:23.606Z,58.16
2023-03-25T22:36:02.810Z,58.19
2023-03-25T22:38:34.540Z,57.69
2023-03-25T22:41:07.996Z,57.81
2023-03-25T22:43:40.382Z,57.76
2023-03-25T22:46:12.507Z,57.80
2023-03-25T22:48:44.657Z,57.00
2023-03-25T22:51:18.777Z,56.83
2023-03-25T22:53:51.017Z,56.96
2023-03-25T22:56:23.688Z,56.78
2023-03-25T22:58:55.378Z,57.36
2023-03-25T23:01:28.584Z,57.49
2023-03-25T23:04:00.557Z,57.32
2023-03-25T23:06:33.399Z,57.27
2023-03-25T23:09:08.366Z,57.22
2023-03-25T23:11:40.396Z,57.41
2023-03-25T23:14:13.258Z,57.06
2023-03-25T23:16:45.085Z,57.54
2023-03-25T23:19:16.742Z,57.37
2023-03-25T23:21:49.734Z,57.65
2023-03-25T23:24:21.440Z,57.21
2023-03-25T23:26:53.535Z,57.71
2023-03-25T23:29:25.212Z,57.69
2023-03-25T23:31:56.965Z,57.37
2023-03-25T23:34:28.644Z,57.83
2023-03-25T23:37:01.713Z,57.60
2023-03-25T23:39:34.957Z,58.01
2023-03-25T23:42:07.505Z,57.45
2023-03-25T23:44:39.200Z,58.01
2023-03-25T23:47:11.190Z,57.80
2023-03-25T23:49:44.204Z,57.53
2023-03-25T23:52:15.971Z,57.57
2023-03-25T23:54:48.643Z,57.90
2023-03-25T23:57:20.576Z,57.33
2023-03-25T23:59:52.231Z,56.60
